sensor_id;sensor_type;location;lat;lon;timestamp;P1;durP1;ratioP1;P2;durP2;ratioP2
36815;SDS011;71982;52.294;6.760;2024-03-23T00:54:07;42.60;;;13.15;;
36815;SDS011;71982;52.294;6.760;2024-03-23T00:56:35;45.60;;;12.18;;
36815;SDS011;71982;52.294;6.760;2024-03-23T00:59:01;51.53;;;10.27;;
36815;SDS011;71982;52.294;6.760;2024-03-23T01:01:28;48.92;;;12.73;;
36815;SDS011;71982;52.294;6.760;2024-03-23T01:03:55;44.92;;;10.63;;
36815;SDS011;71982;52.294;6.760;2024-03-23T01:06:22;51.03;;;11.15;;
36815;SDS011;71982;52.294;6.760;2024-03-23T01:08:50;35.10;;;9.48;;
36815;SDS011;71982;52.294;6.760;2024-03-23T01:11:17;34.72;;;10.30;;
36815;SDS011;71982;52.294;6.760;2024-03-23T01:13:43;41.67;;;10.45;;
36815;SDS011;71982;52.294;6.760;2024-03-23T01:16:10;40.30;;;11.95;;
36815;SDS011;71982;52.294;6.760;2024-03-23T01:18:36;58.13;;;13.98;;
36815;SDS011;71982;52.294;6.760;2024-03-23T01:21:03;58.33;;;12.98;;
36815;SDS011;71982;52.294;6.760;2024-03-23T01:23:30;33.25;;;10.73;;
36815;SDS011;71982;52.294;6.760;2024-03-23T01:26:00;44.90;;;10.88;;
36815;SDS011;71982;52.294;6.760;2024-03-23T01:28:27;51.95;;;11.25;;
36815;SDS011;71982;52.294;6.760;2024-03-23T01:30:54;46.70;;;10.60;;
36815;SDS011;71982;52.294;6.760;2024-03-23T01:33:23;52.95;;;12.68;;
36815;SDS011;71982;52.294;6.760;2024-03-23T01:35:50;55.80;;;12.68;;
36815;SDS011;71982;52.294;6.760;2024-03-23T01:38:15;43.28;;;10.50;;
36815;SDS011;71982;52.294;6.760;2024-03-23T01:40:45;36.13;;;9.73;;
36815;SDS011;71982;52.294;6.760;2024-03-23T01:43:13;47.78;;;13.52;;
36815;SDS011;71982;52.294;6.760;2024-03-23T01:45:39;42.83;;;10.18;;
36815;SDS011;71982;52.294;6.760;2024-03-23T01:48:06;46.90;;;11.40;;
36815;SDS011;71982;52.294;6.760;2024-03-23T01:50:37;36.25;;;11.55;;
36815;SDS011;71982;52.294;6.760;2024-03-23T01:53:03;54.03;;;9.60;;
36815;SDS011;71982;52.294;6.760;2024-03-23T01:55:31;37.40;;;9.70;;
36815;SDS011;71982;52.294;6.760;2024-03-23T01:57:58;52.28;;;11.98;;
36815;SDS011;71982;52.294;6.760;2024-03-23T02:00:26;40.65;;;8.65;;
36815;SDS011;71982;52.294;6.760;2024-03-23T02:02:53;41.03;;;10.50;;
36815;SDS011;71982;52.294;6.760;2024-03-23T02:05:21;33.55;;;8.60;;
36815;SDS011;71982;52.294;6.760;2024-03-23T02:07:47;43.97;;;9.52;;
36815;SDS011;71982;52.294;6.760;2024-03-23T02:10:17;41.25;;;9.95;;
36815;SDS011;71982;52.294;6.760;2024-03-23T02:12:43;38.67;;;9.20;;
36815;SDS011;71982;52.294;6.760;2024-03-23T02:15:12;48.38;;;10.25;;
36815;SDS011;71982;52.294;6.760;2024-03-23T02:17:40;44.42;;;8.75;;
36815;SDS011;71982;52.294;6.760;2024-03-23T02:20:11;45.65;;;8.68;;
36815;SDS011;71982;52.294;6.760;2024-03-23T02:22:38;39.40;;;10.15;;
36815;SDS011;71982;52.294;6.760;2024-03-23T02:25:09;33.97;;;7.95;;
36815;SDS011;71982;52.294;6.760;2024-03-23T02:27:35;51.95;;;9.98;;
36815;SDS011;71982;52.294;6.760;2024-03-23T02:30:05;44.80;;;9.80;;
36815;SDS011;71982;52.294;6.760;2024-03-23T02:32:35;38.50;;;9.75;;
36815;SDS011;71982;52.294;6.760;2024-03-23T02:35:03;59.83;;;9.43;;
36815;SDS011;71982;52.294;6.760;2024-03-23T02:37:32;35.53;;;9.90;;
36815;SDS011;71982;52.294;6.760;2024-03-23T02:40:01;46.10;;;9.25;;
36815;SDS011;71982;52.294;6.760;2024-03-23T02:42:28;59.92;;;10.90;;
36815;SDS011;71982;52.294;6.760;2024-03-23T02:44:59;41.47;;;10.10;;
36815;SDS011;71982;52.294;6.760;2024-03-23T02:47:25;38.65;;;9.50;;
36815;SDS011;71982;52.294;6.760;2024-03-23T02:49:52;36.67;;;9.65;;
36815;SDS011;71982;52.294;6.760;2024-03-23T02:52:22;60.38;;;10.38;;
36815;SDS011;71982;52.294;6.760;2024-03-23T02:54:52;42.05;;;9.43;;
36815;SDS011;71982;52.294;6.760;2024-03-23T02:57:19;43.70;;;9.80;;
36815;SDS011;71982;52.294;6.760;2024-03-23T02:59:56;40.30;;;9.32;;
36815;SDS011;71982;52.294;6.760;2024-03-23T03:02:22;44.42;;;10.07;;
36815;SDS011;71982;52.294;6.760;2024-03-23T03:04:49;43.08;;;11.30;;
36815;SDS011;71982;52.294;6.760;2024-03-23T03:07:15;46.40;;;10.38;;
36815;SDS011;71982;52.294;6.760;2024-03-23T03:09:42;51.10;;;10.85;;
36815;SDS011;71982;52.294;6.760;2024-03-23T03:12:08;64.07;;;13.02;;
36815;SDS011;71982;52.294;6.760;2024-03-23T03:14:36;65.35;;;14.68;;
36815;SDS011;71982;52.294;6.760;2024-03-23T03:17:02;51.30;;;13.07;;
36815;SDS011;71982;52.294;6.760;2024-03-23T03:19:30;52.65;;;15.45;;
36815;SDS011;71982;52.294;6.760;2024-03-23T03:21:55;56.50;;;14.98;;
36815;SDS011;71982;52.294;6.760;2024-03-23T03:24:23;50.92;;;14.10;;
36815;SDS011;71982;52.294;6.760;2024-03-23T03:26:48;68.65;;;18.63;;
36815;SDS011;71982;52.294;6.760;2024-03-23T03:29:16;70.47;;;16.25;;
36815;SDS011;71982;52.294;6.760;2024-03-23T03:31:43;67.93;;;16.50;;
36815;SDS011;71982;52.294;6.760;2024-03-23T03:34:11;60.05;;;15.82;;
36815;SDS011;71982;52.294;6.760;2024-03-23T03:36:37;67.03;;;18.05;;
36815;SDS011;71982;52.294;6.760;2024-03-23T03:39:10;76.60;;;18.15;;
36815;SDS011;71982;52.294;6.760;2024-03-23T03:41:36;53.17;;;16.48;;
36815;SDS011;71982;52.294;6.760;2024-03-23T03:44:03;55.53;;;18.30;;
36815;SDS011;71982;52.294;6.760;2024-03-23T03:46:29;58.33;;;18.77;;
36815;SDS011;71982;52.294;6.760;2024-03-23T03:48:58;66.97;;;17.67;;
36815;SDS011;71982;52.294;6.760;2024-03-23T03:51:23;78.50;;;16.73;;
36815;SDS011;71982;52.294;6.760;2024-03-23T03:53:50;59.13;;;18.48;;
36815;SDS011;71982;52.294;6.760;2024-03-23T03:56:16;52.05;;;15.60;;
36815;SDS011;71982;52.294;6.760;2024-03-23T03:58:43;60.83;;;17.20;;
36815;SDS011;71982;52.294;6.760;2024-03-23T04:01:09;59.03;;;18.70;;
36815;SDS011;71982;52.294;6.760;2024-03-23T04:03:36;66.53;;;17.50;;
36815;SDS011;71982;52.294;6.760;2024-03-23T04:06:06;51.28;;;18.88;;
36815;SDS011;71982;52.294;6.760;2024-03-23T04:08:33;67.30;;;18.63;;
36815;SDS011;71982;52.294;6.760;2024-03-23T04:11:03;62.50;;;18.98;;
36815;SDS011;71982;52.294;6.760;2024-03-23T04:13:30;74.97;;;21.63;;
36815;SDS011;71982;52.294;6.760;2024-03-23T04:15:56;62.35;;;19.23;;
36815;SDS011;71982;52.294;6.760;2024-03-23T04:18:23;72.35;;;20.95;;
36815;SDS011;71982;52.294;6.760;2024-03-23T04:20:49;65.95;;;19.33;;
36815;SDS011;71982;52.294;6.760;2024-03-23T04:23:18;52.72;;;19.60;;
36815;SDS011;71982;52.294;6.760;2024-03-23T04:25:44;65.65;;;21.10;;
36815;SDS011;71982;52.294;6.760;2024-03-23T04:28:11;63.80;;;19.17;;
36815;SDS011;71982;52.294;6.760;2024-03-23T04:30:37;67.78;;;20.92;;
36815;SDS011;71982;52.294;6.760;2024-03-23T04:33:13;65.85;;;21.98;;
36815;SDS011;71982;52.294;6.760;2024-03-23T04:35:39;73.60;;;21.52;;
36815;SDS011;71982;52.294;6.760;2024-03-23T04:38:09;66.50;;;22.67;;
36815;SDS011;71982;52.294;6.760;2024-03-23T04:40:38;75.20;;;23.45;;
36815;SDS011;71982;52.294;6.760;2024-03-23T04:43:05;97.30;;;23.55;;
36815;SDS011;71982;52.294;6.760;2024-03-23T04:45:32;78.60;;;23.65;;
36815;SDS011;71982;52.294;6.760;2024-03-23T04:47:59;66.80;;;22.60;;
36815;SDS011;71982;52.294;6.760;2024-03-23T04:50:26;80.30;;;24.25;;
36815;SDS011;71982;52.294;6.760;2024-03-23T04:52:54;73.32;;;27.77;;
36815;SDS011;71982;52.294;6.760;2024-03-23T04:55:23;81.88;;;24.27;;
36815;SDS011;71982;52.294;6.760;2024-03-23T04:57:51;86.63;;;25.92;;
36815;SDS011;71982;52.294;6.760;2024-03-23T05:00:17;83.43;;;27.25;;
36815;SDS011;71982;52.294;6.760;2024-03-23T05:02:46;71.63;;;25.50;;
36815;SDS011;71982;52.294;6.760;2024-03-23T05:05:11;71.47;;;25.40;;
36815;SDS011;71982;52.294;6.760;2024-03-23T05:07:39;75.60;;;26.40;;
36815;SDS011;71982;52.294;6.760;2024-03-23T05:10:05;70.35;;;26.13;;
36815;SDS011;71982;52.294;6.760;2024-03-23T05:12:35;80.10;;;25.77;;
36815;SDS011;71982;52.294;6.760;2024-03-23T05:15:06;84.18;;;25.90;;
36815;SDS011;71982;52.294;6.760;2024-03-23T05:17:38;86.60;;;29.17;;
36815;SDS011;71982;52.294;6.760;2024-03-23T05:20:05;74.25;;;27.13;;
36815;SDS011;71982;52.294;6.760;2024-03-23T05:22:34;88.57;;;29.33;;
36815;SDS011;71982;52.294;6.760;2024-03-23T05:25:02;80.28;;;28.15;;
36815;SDS011;71982;52.294;6.760;2024-03-23T05:27:30;85.07;;;31.10;;
36815;SDS011;71982;52.294;6.760;2024-03-23T05:29:57;95.45;;;31.95;;
36815;SDS011;71982;52.294;6.760;2024-03-23T05:32:25;82.78;;;28.98;;
36815;SDS011;71982;52.294;6.760;2024-03-23T05:34:52;84.00;;;30.35;;
36815;SDS011;71982;52.294;6.760;2024-03-23T05:37:21;75.07;;;28.50;;
36815;SDS011;71982;52.294;6.760;2024-03-23T05:39:50;90.40;;;30.02;;
36815;SDS011;71982;52.294;6.760;2024-03-23T05:42:18;72.88;;;28.17;;
36815;SDS011;71982;52.294;6.760;2024-03-23T05:44:46;82.72;;;30.98;;
36815;SDS011;71982;52.294;6.760;2024-03-23T05:47:12;80.18;;;28.85;;
36815;SDS011;71982;52.294;6.760;2024-03-23T05:49:46;83.65;;;30.52;;
36815;SDS011;71982;52.294;6.760;2024-03-23T05:52:13;103.28;;;32.17;;
36815;SDS011;71982;52.294;6.760;2024-03-23T05:54:40;68.47;;;28.90;;
36815;SDS011;71982;52.294;6.760;2024-03-23T05:57:08;97.20;;;31.10;;
36815;SDS011;71982;52.294;6.760;2024-03-23T05:59:37;78.28;;;30.63;;
36815;SDS011;71982;52.294;6.760;2024-03-23T06:02:03;85.80;;;30.05;;
36815;SDS011;71982;52.294;6.760;2024-03-23T06:04:35;90.57;;;30.17;;
36815;SDS011;71982;52.294;6.760;2024-03-23T06:07:03;85.22;;;32.67;;
36815;SDS011;71982;52.294;6.760;2024-03-23T06:09:32;82.43;;;32.35;;
36815;SDS011;71982;52.294;6.760;2024-03-23T06:11:58;93.95;;;35.20;;
36815;SDS011;71982;52.294;6.760;2024-03-23T06:14:25;94.47;;;36.10;;
36815;SDS011;71982;52.294;6.760;2024-03-23T06:16:51;82.05;;;32.08;;
36815;SDS011;71982;52.294;6.760;2024-03-23T06:19:18;86.00;;;33.92;;
36815;SDS011;71982;52.294;6.760;2024-03-23T06:21:44;75.35;;;28.52;;
36815;SDS011;71982;52.294;6.760;2024-03-23T06:24:13;76.50;;;27.35;;
36815;SDS011;71982;52.294;6.760;2024-03-23T06:26:39;68.28;;;26.33;;
36815;SDS011;71982;52.294;6.760;2024-03-23T06:29:06;85.03;;;27.55;;
36815;SDS011;71982;52.294;6.760;2024-03-23T06:31:32;78.78;;;27.52;;
36815;SDS011;71982;52.294;6.760;2024-03-23T06:33:59;69.00;;;26.33;;
36815;SDS011;71982;52.294;6.760;2024-03-23T06:36:24;70.38;;;25.48;;
36815;SDS011;71982;52.294;6.760;2024-03-23T06:38:51;59.78;;;23.30;;
36815;SDS011;71982;52.294;6.760;2024-03-23T06:41:19;59.17;;;21.20;;
36815;SDS011;71982;52.294;6.760;2024-03-23T06:43:46;54.67;;;18.95;;
36815;SDS011;71982;52.294;6.760;2024-03-23T06:46:12;57.17;;;19.33;;
36815;SDS011;71982;52.294;6.760;2024-03-23T06:48:40;50.08;;;18.50;;
36815;SDS011;71982;52.294;6.760;2024-03-23T06:51:06;50.03;;;16.05;;
36815;SDS011;71982;52.294;6.760;2024-03-23T06:53:37;40.97;;;16.98;;
36815;SDS011;71982;52.294;6.760;2024-03-23T06:56:03;42.28;;;14.77;;
36815;SDS011;71982;52.294;6.760;2024-03-23T06:58:40;43.60;;;14.25;;
36815;SDS011;71982;52.294;6.760;2024-03-23T07:01:06;39.35;;;14.70;;
36815;SDS011;71982;52.294;6.760;2024-03-23T07:03:36;43.85;;;14.57;;
36815;SDS011;71982;52.294;6.760;2024-03-23T07:06:03;43.70;;;13.18;;
36815;SDS011;71982;52.294;6.760;2024-03-23T07:08:30;45.03;;;14.27;;
36815;SDS011;71982;52.294;6.760;2024-03-23T07:10:56;30.75;;;12.13;;
36815;SDS011;71982;52.294;6.760;2024-03-23T07:13:24;34.47;;;13.07;;
36815;SDS011;71982;52.294;6.760;2024-03-23T07:15:53;36.17;;;10.27;;
36815;SDS011;71982;52.294;6.760;2024-03-23T07:18:20;30.35;;;9.38;;
36815;SDS011;71982;52.294;6.760;2024-03-23T07:20:54;23.95;;;8.73;;
36815;SDS011;71982;52.294;6.760;2024-03-23T07:23:21;20.70;;;5.28;;
36815;SDS011;71982;52.294;6.760;2024-03-23T07:25:58;12.88;;;3.72;;
36815;SDS011;71982;52.294;6.760;2024-03-23T07:28:24;4.85;;;2.20;;
36815;SDS011;71982;52.294;6.760;2024-03-23T07:31:05;6.28;;;1.70;;
36815;SDS011;71982;52.294;6.760;2024-03-23T07:33:33;6.53;;;1.33;;
36815;SDS011;71982;52.294;6.760;2024-03-23T07:36:13;7.88;;;1.38;;
36815;SDS011;71982;52.294;6.760;2024-03-23T07:38:40;3.35;;;1.30;;
36815;SDS011;71982;52.294;6.760;2024-03-23T07:41:09;6.18;;;1.58;;
36815;SDS011;71982;52.294;6.760;2024-03-23T07:43:37;11.73;;;1.42;;
36815;SDS011;71982;52.294;6.760;2024-03-23T07:46:07;7.53;;;1.55;;
36815;SDS011;71982;52.294;6.760;2024-03-23T07:48:37;7.47;;;1.85;;
36815;SDS011;71982;52.294;6.760;2024-03-23T07:53:33;5.85;;;1.80;;
36815;SDS011;71982;52.294;6.760;2024-03-23T07:56:07;7.72;;;1.88;;
36815;SDS011;71982;52.294;6.760;2024-03-23T07:58:36;11.18;;;2.50;;
36815;SDS011;71982;52.294;6.760;2024-03-23T08:01:15;7.78;;;1.80;;
36815;SDS011;71982;52.294;6.760;2024-03-23T08:03:43;8.07;;;2.15;;
36815;SDS011;71982;52.294;6.760;2024-03-23T08:06:22;6.22;;;1.90;;
36815;SDS011;71982;52.294;6.760;2024-03-23T08:08:52;8.43;;;2.40;;
36815;SDS011;71982;52.294;6.760;2024-03-23T08:11:33;11.23;;;3.65;;
36815;SDS011;71982;52.294;6.760;2024-03-23T08:14:11;14.70;;;3.03;;
36815;SDS011;71982;52.294;6.760;2024-03-23T08:16:40;11.63;;;3.97;;
36815;SDS011;71982;52.294;6.760;2024-03-23T08:19:10;15.95;;;3.70;;
36815;SDS011;71982;52.294;6.760;2024-03-23T08:21:37;13.73;;;4.15;;
36815;SDS011;71982;52.294;6.760;2024-03-23T08:24:06;14.40;;;4.22;;
36815;SDS011;71982;52.294;6.760;2024-03-23T08:26:37;18.38;;;5.30;;
36815;SDS011;71982;52.294;6.760;2024-03-23T08:29:12;19.23;;;5.30;;
36815;SDS011;71982;52.294;6.760;2024-03-23T08:31:40;16.85;;;4.47;;
36815;SDS011;71982;52.294;6.760;2024-03-23T08:34:06;19.25;;;4.65;;
36815;SDS011;71982;52.294;6.760;2024-03-23T08:36:37;17.88;;;4.45;;
36815;SDS011;71982;52.294;6.760;2024-03-23T08:39:03;15.85;;;4.47;;
36815;SDS011;71982;52.294;6.760;2024-03-23T08:41:33;19.90;;;4.78;;
36815;SDS011;71982;52.294;6.760;2024-03-23T08:44:00;16.40;;;4.70;;
36815;SDS011;71982;52.294;6.760;2024-03-23T08:46:28;17.52;;;5.53;;
36815;SDS011;71982;52.294;6.760;2024-03-23T08:48:56;15.45;;;4.72;;
36815;SDS011;71982;52.294;6.760;2024-03-23T08:51:26;18.55;;;4.82;;
36815;SDS011;71982;52.294;6.760;2024-03-23T08:53:52;13.88;;;4.10;;
36815;SDS011;71982;52.294;6.760;2024-03-23T08:56:19;19.45;;;4.53;;
36815;SDS011;71982;52.294;6.760;2024-03-23T08:58:45;15.23;;;3.90;;
36815;SDS011;71982;52.294;6.760;2024-03-23T09:01:12;14.23;;;3.88;;
36815;SDS011;71982;52.294;6.760;2024-03-23T09:03:39;15.88;;;3.90;;
36815;SDS011;71982;52.294;6.760;2024-03-23T09:06:08;8.60;;;4.13;;
36815;SDS011;71982;52.294;6.760;2024-03-23T09:08:34;13.00;;;2.92;;
36815;SDS011;71982;52.294;6.760;2024-03-23T09:11:05;20.92;;;6.82;;
36815;SDS011;71982;52.294;6.760;2024-03-23T09:13:33;28.30;;;5.60;;
36815;SDS011;71982;52.294;6.760;2024-03-23T09:16:01;45.97;;;8.55;;
36815;SDS011;71982;52.294;6.760;2024-03-23T09:18:31;14.50;;;3.28;;
36815;SDS011;71982;52.294;6.760;2024-03-23T09:20:58;11.63;;;2.95;;
36815;SDS011;71982;52.294;6.760;2024-03-23T09:23:26;11.23;;;2.80;;
36815;SDS011;71982;52.294;6.760;2024-03-23T09:25:53;11.05;;;2.95;;
36815;SDS011;71982;52.294;6.760;2024-03-23T09:28:19;20.15;;;3.80;;
36815;SDS011;71982;52.294;6.760;2024-03-23T09:30:46;10.18;;;3.10;;
36815;SDS011;71982;52.294;6.760;2024-03-23T09:33:12;16.17;;;3.42;;
36815;SDS011;71982;52.294;6.760;2024-03-23T09:35:39;15.45;;;3.90;;
36815;SDS011;71982;52.294;6.760;2024-03-23T09:38:08;10.55;;;2.80;;
36815;SDS011;71982;52.294;6.760;2024-03-23T09:40:41;11.32;;;3.25;;
36815;SDS011;71982;52.294;6.760;2024-03-23T09:43:08;14.68;;;3.28;;
36815;SDS011;71982;52.294;6.760;2024-03-23T09:45:38;9.15;;;3.33;;
36815;SDS011;71982;52.294;6.760;2024-03-23T09:48:06;12.60;;;5.38;;
36815;SDS011;71982;52.294;6.760;2024-03-23T09:50:36;13.88;;;3.60;;
36815;SDS011;71982;52.294;6.760;2024-03-23T09:53:02;13.95;;;3.42;;
36815;SDS011;71982;52.294;6.760;2024-03-23T09:55:37;21.40;;;4.25;;
36815;SDS011;71982;52.294;6.760;2024-03-23T09:58:08;7.90;;;2.72;;
36815;SDS011;71982;52.294;6.760;2024-03-23T10:00:43;12.55;;;2.78;;
36815;SDS011;71982;52.294;6.760;2024-03-23T10:03:10;14.85;;;4.43;;
36815;SDS011;71982;52.294;6.760;2024-03-23T10:05:40;14.13;;;3.17;;
36815;SDS011;71982;52.294;6.760;2024-03-23T10:08:17;15.70;;;3.38;;
36815;SDS011;71982;52.294;6.760;2024-03-23T10:10:45;12.15;;;2.92;;
36815;SDS011;71982;52.294;6.760;2024-03-23T10:13:14;8.20;;;3.00;;
36815;SDS011;71982;52.294;6.760;2024-03-23T10:15:57;11.32;;;2.60;;
36815;SDS011;71982;52.294;6.760;2024-03-23T10:18:26;9.18;;;2.20;;
36815;SDS011;71982;52.294;6.760;2024-03-23T10:21:06;7.90;;;2.30;;
36815;SDS011;71982;52.294;6.760;2024-03-23T10:23:36;10.18;;;2.63;;
36815;SDS011;71982;52.294;6.760;2024-03-23T10:26:14;13.60;;;3.13;;
36815;SDS011;71982;52.294;6.760;2024-03-23T10:28:51;10.60;;;2.95;;
36815;SDS011;71982;52.294;6.760;2024-03-23T10:31:19;13.55;;;2.80;;
36815;SDS011;71982;52.294;6.760;2024-03-23T10:33:46;11.77;;;2.65;;
36815;SDS011;71982;52.294;6.760;2024-03-23T10:36:13;11.02;;;2.95;;
36815;SDS011;71982;52.294;6.760;2024-03-23T10:38:54;11.40;;;2.08;;
36815;SDS011;71982;52.294;6.760;2024-03-23T10:41:24;7.90;;;1.70;;
36815;SDS011;71982;52.294;6.760;2024-03-23T10:43:55;9.90;;;1.95;;
36815;SDS011;71982;52.294;6.760;2024-03-23T10:46:28;7.03;;;1.83;;
36815;SDS011;71982;52.294;6.760;2024-03-23T10:48:54;16.58;;;2.85;;
36815;SDS011;71982;52.294;6.760;2024-03-23T10:51:23;9.35;;;1.98;;
36815;SDS011;71982;52.294;6.760;2024-03-23T10:53:50;3.95;;;1.67;;
36815;SDS011;71982;52.294;6.760;2024-03-23T10:56:19;4.35;;;1.50;;
36815;SDS011;71982;52.294;6.760;2024-03-23T10:58:47;5.75;;;1.13;;
36815;SDS011;71982;52.294;6.760;2024-03-23T11:01:26;3.45;;;1.20;;
36815;SDS011;71982;52.294;6.760;2024-03-23T11:03:55;3.17;;;1.10;;
36815;SDS011;71982;52.294;6.760;2024-03-23T11:06:33;3.53;;;1.08;;
36815;SDS011;71982;52.294;6.760;2024-03-23T11:12:26;6.10;;;1.33;;
36815;SDS011;71982;52.294;6.760;2024-03-23T11:14:53;9.30;;;1.38;;
36815;SDS011;71982;52.294;6.760;2024-03-23T11:17:24;7.78;;;2.25;;
36815;SDS011;71982;52.294;6.760;2024-03-23T11:19:55;8.60;;;1.50;;
36815;SDS011;71982;52.294;6.760;2024-03-23T11:22:41;6.45;;;1.63;;
36815;SDS011;71982;52.294;6.760;2024-03-23T11:25:17;7.57;;;1.75;;
36815;SDS011;71982;52.294;6.760;2024-03-23T11:27:49;7.25;;;2.00;;
36815;SDS011;71982;52.294;6.760;2024-03-23T11:30:16;7.75;;;1.73;;
36815;SDS011;71982;52.294;6.760;2024-03-23T11:32:46;6.03;;;1.50;;
36815;SDS011;71982;52.294;6.760;2024-03-23T11:35:29;5.60;;;1.60;;
36815;SDS011;71982;52.294;6.760;2024-03-23T11:38:07;5.75;;;1.45;;
36815;SDS011;71982;52.294;6.760;2024-03-23T11:40:35;7.32;;;1.65;;
36815;SDS011;71982;52.294;6.760;2024-03-23T11:43:03;7.32;;;1.60;;
36815;SDS011;71982;52.294;6.760;2024-03-23T11:45:39;6.30;;;1.70;;
36815;SDS011;71982;52.294;6.760;2024-03-23T11:48:13;6.95;;;1.70;;
36815;SDS011;71982;52.294;6.760;2024-03-23T11:50:41;5.78;;;2.22;;
36815;SDS011;71982;52.294;6.760;2024-03-23T11:53:11;6.80;;;1.52;;
36815;SDS011;71982;52.294;6.760;2024-03-23T11:55:42;5.47;;;1.13;;
36815;SDS011;71982;52.294;6.760;2024-03-23T11:58:16;4.78;;;1.45;;
36815;SDS011;71982;52.294;6.760;2024-03-23T12:00:49;4.63;;;1.27;;
36815;SDS011;71982;52.294;6.760;2024-03-23T12:03:21;4.60;;;1.70;;
36815;SDS011;71982;52.294;6.760;2024-03-23T12:05:51;7.35;;;1.77;;
36815;SDS011;71982;52.294;6.760;2024-03-23T12:08:20;5.43;;;1.45;;
36815;SDS011;71982;52.294;6.760;2024-03-23T12:10:51;6.83;;;2.10;;
36815;SDS011;71982;52.294;6.760;2024-03-23T12:13:20;4.28;;;1.30;;
36815;SDS011;71982;52.294;6.760;2024-03-23T12:15:47;6.60;;;1.73;;
36815;SDS011;71982;52.294;6.760;2024-03-23T12:18:19;6.05;;;1.58;;
36815;SDS011;71982;52.294;6.760;2024-03-23T12:20:52;9.35;;;1.73;;
36815;SDS011;71982;52.294;6.760;2024-03-23T12:23:19;6.32;;;1.70;;
36815;SDS011;71982;52.294;6.760;2024-03-23T12:25:48;6.68;;;1.98;;
36815;SDS011;71982;52.294;6.760;2024-03-23T12:28:15;9.07;;;1.80;;
36815;SDS011;71982;52.294;6.760;2024-03-23T12:30:43;8.35;;;2.10;;
36815;SDS011;71982;52.294;6.760;2024-03-23T12:33:23;7.38;;;1.70;;
36815;SDS011;71982;52.294;6.760;2024-03-23T12:35:52;10.60;;;2.20;;
36815;SDS011;71982;52.294;6.760;2024-03-23T12:38:20;7.85;;;1.67;;
36815;SDS011;71982;52.294;6.760;2024-03-23T12:43:53;6.93;;;1.60;;
36815;SDS011;71982;52.294;6.760;2024-03-23T12:46:19;4.40;;;1.52;;
36815;SDS011;71982;52.294;6.760;2024-03-23T12:48:49;9.60;;;2.10;;
36815;SDS011;71982;52.294;6.760;2024-03-23T12:51:16;10.32;;;2.10;;
36815;SDS011;71982;52.294;6.760;2024-03-23T12:53:45;5.88;;;1.77;;
36815;SDS011;71982;52.294;6.760;2024-03-23T12:56:24;6.03;;;1.60;;
36815;SDS011;71982;52.294;6.760;2024-03-23T12:59:04;2.97;;;1.65;;
36815;SDS011;71982;52.294;6.760;2024-03-23T13:01:41;6.35;;;2.13;;
36815;SDS011;71982;52.294;6.760;2024-03-23T13:04:11;8.63;;;1.73;;
36815;SDS011;71982;52.294;6.760;2024-03-23T13:06:41;7.85;;;1.98;;
36815;SDS011;71982;52.294;6.760;2024-03-23T13:09:16;7.05;;;2.20;;
36815;SDS011;71982;52.294;6.760;2024-03-23T13:11:43;7.78;;;1.83;;
36815;SDS011;71982;52.294;6.760;2024-03-23T13:14:09;5.93;;;1.70;;
36815;SDS011;71982;52.294;6.760;2024-03-23T13:16:41;6.40;;;1.80;;
36815;SDS011;71982;52.294;6.760;2024-03-23T13:19:11;5.00;;;1.48;;
36815;SDS011;71982;52.294;6.760;2024-03-23T13:21:38;9.10;;;2.38;;
36815;SDS011;71982;52.294;6.760;2024-03-23T13:24:05;11.70;;;2.00;;
36815;SDS011;71982;52.294;6.760;2024-03-23T13:26:34;8.73;;;1.85;;
36815;SDS011;71982;52.294;6.760;2024-03-23T13:29:00;6.38;;;1.73;;
36815;SDS011;71982;52.294;6.760;2024-03-23T13:31:27;8.52;;;1.75;;
36815;SDS011;71982;52.294;6.760;2024-03-23T13:33:53;7.03;;;1.80;;
36815;SDS011;71982;52.294;6.760;2024-03-23T13:36:22;8.25;;;1.58;;
36815;SDS011;71982;52.294;6.760;2024-03-23T13:38:48;7.10;;;1.70;;
36815;SDS011;71982;52.294;6.760;2024-03-23T13:41:16;9.48;;;1.80;;
36815;SDS011;71982;52.294;6.760;2024-03-23T13:43:44;5.38;;;1.35;;
36815;SDS011;71982;52.294;6.760;2024-03-23T13:46:13;10.70;;;1.80;;
36815;SDS011;71982;52.294;6.760;2024-03-23T13:48:39;5.97;;;2.05;;
36815;SDS011;71982;52.294;6.760;2024-03-23T13:51:10;5.07;;;1.55;;
36815;SDS011;71982;52.294;6.760;2024-03-23T13:56:21;6.65;;;1.98;;
36815;SDS011;71982;52.294;6.760;2024-03-23T13:58:49;7.82;;;1.90;;
36815;SDS011;71982;52.294;6.760;2024-03-23T14:01:24;5.30;;;1.60;;
36815;SDS011;71982;52.294;6.760;2024-03-23T14:03:55;8.85;;;1.70;;
36815;SDS011;71982;52.294;6.760;2024-03-23T14:06:22;4.53;;;1.98;;
36815;SDS011;71982;52.294;6.760;2024-03-23T14:08:49;8.00;;;2.25;;
36815;SDS011;71982;52.294;6.760;2024-03-23T14:11:19;8.65;;;2.17;;
36815;SDS011;71982;52.294;6.760;2024-03-23T14:13:45;6.60;;;1.65;;
36815;SDS011;71982;52.294;6.760;2024-03-23T14:16:16;11.35;;;2.30;;
36815;SDS011;71982;52.294;6.760;2024-03-23T14:18:46;8.85;;;1.70;;
36815;SDS011;71982;52.294;6.760;2024-03-23T14:21:16;9.05;;;1.80;;
36815;SDS011;71982;52.294;6.760;2024-03-23T14:23:42;9.52;;;2.47;;
36815;SDS011;71982;52.294;6.760;2024-03-23T14:26:10;6.47;;;1.52;;
36815;SDS011;71982;52.294;6.760;2024-03-23T14:28:37;6.53;;;1.98;;
36815;SDS011;71982;52.294;6.760;2024-03-23T14:31:08;2.83;;;1.20;;
36815;SDS011;71982;52.294;6.760;2024-03-23T14:33:35;5.95;;;1.80;;
36815;SDS011;71982;52.294;6.760;2024-03-23T14:36:06;7.88;;;2.13;;
36815;SDS011;71982;52.294;6.760;2024-03-23T14:38:36;7.00;;;1.52;;
36815;SDS011;71982;52.294;6.760;2024-03-23T14:41:17;6.35;;;1.30;;
36815;SDS011;71982;52.294;6.760;2024-03-23T14:43:45;5.07;;;1.40;;
36815;SDS011;71982;52.294;6.760;2024-03-23T14:46:14;5.45;;;1.67;;
36815;SDS011;71982;52.294;6.760;2024-03-23T14:48:41;6.97;;;2.03;;
36815;SDS011;71982;52.294;6.760;2024-03-23T14:51:09;4.65;;;1.70;;
36815;SDS011;71982;52.294;6.760;2024-03-23T14:53:39;5.05;;;1.40;;
36815;SDS011;71982;52.294;6.760;2024-03-23T14:56:09;6.47;;;1.73;;
36815;SDS011;71982;52.294;6.760;2024-03-23T14:58:38;5.43;;;2.10;;
36815;SDS011;71982;52.294;6.760;2024-03-23T15:01:10;6.28;;;1.90;;
36815;SDS011;71982;52.294;6.760;2024-03-23T15:03:39;3.35;;;1.40;;
36815;SDS011;71982;52.294;6.760;2024-03-23T15:06:08;8.30;;;1.90;;
36815;SDS011;71982;52.294;6.760;2024-03-23T15:08:34;4.60;;;1.60;;
36815;SDS011;71982;52.294;6.760;2024-03-23T15:11:03;10.68;;;2.90;;
36815;SDS011;71982;52.294;6.760;2024-03-23T15:13:30;9.23;;;1.85;;
36815;SDS011;71982;52.294;6.760;2024-03-23T15:15:58;6.30;;;1.52;;
36815;SDS011;71982;52.294;6.760;2024-03-23T15:18:28;5.45;;;1.50;;
36815;SDS011;71982;52.294;6.760;2024-03-23T15:20:55;12.60;;;2.03;;
36815;SDS011;71982;52.294;6.760;2024-03-23T15:23:22;5.63;;;1.58;;
36815;SDS011;71982;52.294;6.760;2024-03-23T15:25:59;8.65;;;2.55;;
36815;SDS011;71982;52.294;6.760;2024-03-23T15:28:28;10.00;;;1.90;;
36815;SDS011;71982;52.294;6.760;2024-03-23T15:31:08;10.07;;;1.95;;
36815;SDS011;71982;52.294;6.760;2024-03-23T15:33:36;6.10;;;2.17;;
36815;SDS011;71982;52.294;6.760;2024-03-23T15:36:05;4.40;;;1.00;;
36815;SDS011;71982;52.294;6.760;2024-03-23T15:38:42;2.78;;;1.10;;
36815;SDS011;71982;52.294;6.760;2024-03-23T15:41:11;1.55;;;0.88;;
36815;SDS011;71982;52.294;6.760;2024-03-23T15:43:40;3.72;;;1.00;;
36815;SDS011;71982;52.294;6.760;2024-03-23T15:46:10;5.35;;;1.10;;
36815;SDS011;71982;52.294;6.760;2024-03-23T15:48:44;5.45;;;1.58;;